CYTZ/YTZ METAR and TAF weather

Enter ICAO airport designator
Station Type Date Time Source
CYTZ METAR 2021/07/24 20:45 UTC NOAA

CYTZ 242045Z AUTO 18006KT 9SM -RA BKN030 OVC060 22/21 A2989 RMK SLP121 DENSITY ALT 120


Station Type Date Time Source
CYTZ Decoded METAR 2021/07/24 20:45 UTC NOAA

Toronto Island Airport Automated Reporting Station, Canada (CYTZ) 43-38N 079-24W
Jul 24, 2021 - 04:45 PM EDT / 2021.07.24 2045 UTC
Wind: from the S (180 degrees) at 7 MPH (6 KT):0
Visibility: 9 mile(s):0
Sky conditions: overcast
Weather: light rain
Temperature: 71 F (22 C)
Dew Point: 69 F (21 C)
Relative Humidity: 94%
Pressure (altimeter): 29.89 in. Hg (1012 hPa)
ob: CYTZ 242045Z AUTO 18006KT 9SM -RA BKN030 OVC060 22/21 A2989 RMK SLP121 DENSITY ALT 1200FT
cycle: 21

Station Type Date Time Source
CYTZ TAF 2021/07/24 20:58 UTC NOAA

TAF CYTZ 241946Z 2420/2520 18008KT P6SM OVC040
TEMPO 2420/2502 5SM -SHRA BR BKN020 OVC040
FM250200 23012KT 4SM SHRA BR BKN015 OVC030 PROB30 2502/2506 VRB15G30KT 11/2SM +TSRA BR BKN008 OVC015CB
FM250600 25012KT P6SM SCT008 OVC015
BECMG 2506/2508 26008KT
FM251200 28010KT P6SM SCT015
BECMG 2512/2514 21008KT
FM251700 21012KT P6SM SCT040
RMK FCST BASED ON AUTO OBS. NXT FCST BY 250200Z

Example: see airport list